Time;durP1;ratioP1;P1;durP2;ratioP2;P2;SDS_P1;SDS_P2;PMS_P1;PMS_P2;Temp;Humidity;BMP_temperature;BMP_pressure;BME280_temperature;BME280_humidity;BME280_pressure;Samples;Min_cycle;Max_cycle;Signal;HPM_P1;HPM_P2
2023/01/31 00:00:53;;;;;;;24.63;5.13;;;;;;;3.49;100.00;102386.84;5186100;28;20023;-75
2023/01/31 00:03:25;;;;;;;19.87;5.07;;;;;;;3.55;100.00;102391.13;5189542;28;20022;-73
2023/01/31 00:05:56;;;;;;;23.50;5.77;;;;;;;3.56;100.00;102396.28;5188855;28;20034;-72
2023/01/31 00:08:27;;;;;;;19.67;4.43;;;;;;;3.49;100.00;102395.47;5184737;28;20050;-74
2023/01/31 00:10:59;;;;;;;18.23;4.77;;;;;;;3.44;100.00;102397.22;5205423;28;20030;-74
2023/01/31 00:13:30;;;;;;;21.83;5.40;;;;;;;3.44;100.00;102404.16;5189511;28;20039;-72
2023/01/31 00:16:02;;;;;;;17.20;5.10;;;;;;;3.39;100.00;102407.59;5189807;28;20483;-74
2023/01/31 00:18:34;;;;;;;18.43;5.20;;;;;;;3.43;100.00;102402.41;5191101;28;20113;-77
2023/01/31 00:21:14;;;;;;;20.53;5.23;;;;;;;3.43;100.00;102412.78;5189967;28;20053;-77
2023/01/31 00:23:47;;;;;;;21.90;4.93;;;;;;;3.39;100.00;102420.56;5188344;28;20647;-78
2023/01/31 00:26:28;;;;;;;21.87;4.90;;;;;;;3.41;100.00;102415.38;5247321;28;20031;-77
2023/01/31 00:29:02;;;;;;;18.33;4.37;;;;;;;3.37;100.00;102411.94;5190368;28;20610;-75
2023/01/31 00:31:34;;;;;;;21.40;4.90;;;;;;;3.33;100.00;102410.25;5188497;28;20034;-74
2023/01/31 00:34:05;;;;;;;20.03;5.13;;;;;;;3.33;100.00;102418.00;5189688;28;20083;-75
2023/01/31 00:36:37;;;;;;;22.77;4.53;;;;;;;3.31;100.00;102414.56;5188617;28;20026;-78
2023/01/31 00:39:09;;;;;;;26.97;4.87;;;;;;;3.37;100.00;102416.22;5186486;28;20027;-75
2023/01/31 00:41:40;;;;;;;21.90;4.83;;;;;;;3.29;100.00;102403.34;5189343;28;20064;-74
2023/01/31 00:44:12;;;;;;;25.17;6.77;;;;;;;3.25;100.00;102392.13;5188783;28;20049;-73
2023/01/31 00:46:43;;;;;;;16.27;4.73;;;;;;;3.31;100.00;102398.16;5189365;28;20034;-74
2023/01/31 00:49:14;;;;;;;19.67;4.50;;;;;;;3.27;100.00;102397.28;5189865;28;20032;-75
2023/01/31 00:51:46;;;;;;;20.37;5.13;;;;;;;3.26;100.00;102395.59;5187790;28;20609;-73
2023/01/31 00:54:17;;;;;;;23.47;5.67;;;;;;;3.20;100.00;102393.88;5187859;28;20087;-74
2023/01/31 00:56:49;;;;;;;22.07;5.23;;;;;;;3.20;100.00;102395.59;5187417;28;20041;-76
2023/01/31 00:59:20;;;;;;;23.30;4.83;;;;;;;3.26;100.00;102403.34;5188646;28;20112;-76
2023/01/31 01:01:51;;;;;;;25.27;4.83;;;;;;;3.25;100.00;102391.25;5192812;28;20105;-75
2023/01/31 01:04:22;;;;;;;18.60;4.87;;;;;;;3.29;100.00;102397.28;5189069;28;20034;-75
2023/01/31 01:06:54;;;;;;;17.33;5.23;;;;;;;3.27;100.00;102394.69;5189402;28;20070;-74
2023/01/31 01:09:25;;;;;;;21.47;5.30;;;;;;;3.18;100.00;102392.16;5183967;28;20474;-71
2023/01/31 01:11:56;;;;;;;20.00;5.30;;;;;;;3.26;100.00;102387.81;5189394;28;20034;-77
2023/01/31 01:14:27;;;;;;;24.10;6.13;;;;;;;2.97;100.00;102375.81;5189759;28;20022;-77
2023/01/31 01:16:59;;;;;;;21.60;5.00;;;;;;;3.10;100.00;102374.94;5188024;28;20041;-71
2023/01/31 01:19:30;;;;;;;23.07;6.27;;;;;;;3.17;100.00;102372.31;5189146;28;20065;-73
2023/01/31 01:22:03;;;;;;;28.40;6.97;;;;;;;2.96;100.00;102367.19;5188934;28;20041;-76
2023/01/31 01:24:34;;;;;;;27.63;7.70;;;;;;;3.14;100.00;102361.09;5179527;28;20045;-77
2023/01/31 01:27:06;;;;;;;27.90;6.40;;;;;;;3.14;100.00;102360.25;5188217;28;20030;-75
2023/01/31 01:29:38;;;;;;;29.90;7.10;;;;;;;3.13;100.00;102350.75;5188207;28;20042;-76
2023/01/31 01:32:09;;;;;;;27.67;6.10;;;;;;;3.20;100.00;102362.78;5189007;28;20167;-74
2023/01/31 01:34:40;;;;;;;31.40;6.60;;;;;;;3.16;100.00;102357.66;5187715;28;20335;-77
2023/01/31 01:37:18;;;;;;;20.70;7.40;;;;;;;3.12;100.00;102356.78;5186730;28;20080;-74
2023/01/31 01:39:51;;;;;;;23.53;8.50;;;;;;;3.08;100.00;102344.72;5186877;28;20042;-73
2023/01/31 01:42:24;;;;;;;23.90;6.30;;;;;;;3.05;100.00;102347.31;5186847;28;20086;-75
2023/01/31 01:44:58;;;;;;;29.10;7.30;;;;;;;3.09;100.00;102356.81;5187593;28;20116;-75
2023/01/31 01:47:38;;;;;;;35.55;8.82;;;;;;;3.08;100.00;102350.78;5187962;28;20121;-76
2023/01/31 01:50:22;;;;;;;27.00;7.33;;;;;;;3.07;100.00;102354.19;5188181;28;20027;-74
2023/01/31 01:53:00;;;;;;;25.93;7.60;;;;;;;3.06;100.00;102344.72;5186638;28;20022;-73
2023/01/31 01:55:36;;;;;;;19.93;6.73;;;;;;;3.02;100.00;102340.41;5187829;28;20043;-76
2023/01/31 01:58:12;;;;;;;29.20;7.67;;;;;;;3.00;100.00;102337.84;5188343;28;20026;-77
2023/01/31 02:00:46;;;;;;;40.53;9.53;;;;;;;3.00;100.00;102337.00;5187107;28;20034;-74
2023/01/31 02:03:17;;;;;;;27.30;7.37;;;;;;;2.98;100.00;102338.72;5187876;28;20091;-74
2023/01/31 02:05:54;;;;;;;32.47;8.60;;;;;;;3.03;100.00;102347.34;5187749;28;20022;-76
2023/01/31 02:08:30;;;;;;;32.33;7.83;;;;;;;2.95;100.00;102347.34;5187735;28;20066;-75
2023/01/31 02:11:31;;;;;;;29.60;7.67;;;;;;;3.00;100.00;102349.94;5190656;28;20030;-74
2023/01/31 02:14:08;;;;;;;23.53;7.87;;;;;;;2.97;100.00;102360.28;5196736;28;20672;-76
2023/01/31 02:16:39;;;;;;;29.60;9.17;;;;;;;2.90;100.00;102355.13;5187915;28;20022;-77
2023/01/31 02:19:39;;;;;;;32.30;10.20;;;;;;;2.97;100.00;102355.09;5188297;28;20033;-76
2023/01/31 02:22:19;;;;;;;31.17;8.87;;;;;;;2.96;100.00;102356.84;5183554;28;20144;-76
2023/01/31 02:25:21;;;;;;;29.00;8.60;;;;;;;2.98;100.00;102354.25;5207838;28;20060;-77
2023/01/31 02:28:24;;;;;;;25.97;9.30;;;;;;;2.97;100.00;102368.91;5206379;28;20034;-76
2023/01/31 02:31:14;;;;;;;34.13;8.90;;;;;;;2.94;100.00;102362.88;5188540;28;20069;-76
2023/01/31 02:33:59;;;;;;;24.37;8.37;;;;;;;2.89;100.00;102366.38;5187154;28;20037;-76
2023/01/31 02:36:52;;;;;;;32.33;9.68;;;;;;;2.85;100.00;102367.22;5184563;28;20509;-75
2023/01/31 02:39:36;;;;;;;27.77;9.40;;;;;;;2.85;100.00;102359.47;5187039;28;20055;-73
2023/01/31 02:42:12;;;;;;;36.27;10.43;;;;;;;2.90;100.00;102349.97;5187752;28;20041;-75
2023/01/31 02:45:12;;;;;;;23.60;8.70;;;;;;;2.93;100.00;102358.59;5186789;28;20030;-76
2023/01/31 02:48:03;;;;;;;27.33;9.87;;;;;;;2.92;100.00;102359.44;5187518;28;20038;-73
2023/01/31 02:50:40;;;;;;;32.67;10.53;;;;;;;2.86;100.00;102356.00;5186870;28;20054;-75
2023/01/31 02:53:14;;;;;;;31.23;8.93;;;;;;;2.95;100.00;102360.28;5178954;28;20035;-74
2023/01/31 02:58:47;;;;;;;29.53;9.10;;;;;;;2.88;100.00;102359.44;5188267;28;20031;-71
2023/01/31 03:01:24;;;;;;;25.50;8.97;;;;;;;2.94;100.00;102355.13;5187827;28;20107;-76
2023/01/31 03:04:02;;;;;;;28.70;11.17;;;;;;;2.93;100.00;102356.00;5187335;28;20058;-76
2023/01/31 03:06:33;;;;;;;22.93;8.63;;;;;;;2.96;100.00;102361.16;5187327;28;20046;-76
2023/01/31 03:09:35;;;;;;;30.50;9.87;;;;;;;2.92;100.00;102364.59;5187150;28;20629;-72
2023/01/31 03:12:19;;;;;;;33.53;10.37;;;;;;;2.93;100.00;102346.50;5186517;28;20022;-73
2023/01/31 03:15:09;;;;;;;29.00;8.70;;;;;;;2.85;100.00;102348.25;5187172;28;20493;-76
2023/01/31 03:17:57;;;;;;;34.00;9.87;;;;;;;2.89;100.00;102340.50;5187507;28;20026;-77
2023/01/31 03:20:42;;;;;;;28.27;9.43;;;;;;;2.83;100.00;102340.50;5187697;28;20022;-76
2023/01/31 03:23:18;;;;;;;30.67;10.13;;;;;;;2.83;100.00;102330.13;5187282;28;20079;-76
2023/01/31 03:25:50;;;;;;;30.60;10.10;;;;;;;2.72;100.00;102319.84;5187598;28;20054;-72
2023/01/31 03:28:27;;;;;;;33.87;10.80;;;;;;;2.82;100.00;102328.44;5187741;28;20034;-76
2023/01/31 03:31:21;;;;;;;27.70;10.10;;;;;;;2.86;100.00;102339.63;5188030;28;20126;-75
2023/01/31 03:33:58;;;;;;;33.10;10.98;;;;;;;2.83;100.00;102330.13;5178509;28;20563;-76
2023/01/31 03:36:37;;;;;;;34.00;11.33;;;;;;;2.77;100.00;102320.69;5185983;28;20095;-76
2023/01/31 03:39:15;;;;;;;26.17;11.23;;;;;;;2.80;100.00;102337.91;5184498;28;20041;-77
2023/01/31 03:42:06;;;;;;;32.70;11.53;;;;;;;2.82;100.00;102323.25;5186083;28;20109;-75
2023/01/31 03:45:08;;;;;;;38.10;13.00;;;;;;;2.82;100.00;102325.84;5188944;28;20023;-76
2023/01/31 03:47:45;;;;;;;30.10;10.77;;;;;;;2.75;100.00;102311.19;5190693;28;20034;-75
2023/01/31 03:50:33;;;;;;;32.77;11.80;;;;;;;2.75;100.00;102311.19;5187222;28;20030;-76
2023/01/31 03:53:10;;;;;;;29.13;10.60;;;;;;;2.78;100.00;102324.13;5188945;28;20176;-75
2023/01/31 03:56:20;;;;;;;29.73;11.17;;;;;;;2.82;100.00;102315.50;5183568;28;20109;-73
2023/01/31 03:58:57;;;;;;;28.70;12.53;;;;;;;2.80;100.00;102309.44;5188219;28;20485;-75
2023/01/31 04:01:33;;;;;;;30.53;12.67;;;;;;;2.77;100.00;102309.47;5186219;28;20030;-72
2023/01/31 04:04:20;;;;;;;34.97;13.23;;;;;;;2.78;100.00;102306.00;5184525;28;20084;-76
2023/01/31 04:06:51;;;;;;;35.23;13.40;;;;;;;2.78;100.00;102306.00;5185488;28;20054;-73
2023/01/31 04:09:23;;;;;;;37.63;12.10;;;;;;;2.71;100.00;102307.75;5189788;28;20110;-74
2023/01/31 04:11:59;;;;;;;32.10;11.77;;;;;;;2.78;100.00;102312.03;5190382;28;20457;-76
2023/01/31 04:14:30;;;;;;;35.50;12.43;;;;;;;2.70;100.00;102313.81;5190077;28;20022;-77
2023/01/31 04:17:01;;;;;;;30.80;10.60;;;;;;;2.73;100.00;102310.31;5189332;28;20083;-75
2023/01/31 04:19:32;;;;;;;35.10;11.07;;;;;;;2.66;100.00;102305.19;5189039;28;20022;-76
2023/01/31 04:22:04;;;;;;;28.27;13.47;;;;;;;2.68;100.00;102299.13;5187596;28;20065;-75
2023/01/31 04:24:35;;;;;;;34.50;13.90;;;;;;;2.72;100.00;102306.03;5187901;28;20105;-76
2023/01/31 04:27:07;;;;;;;36.80;13.13;;;;;;;2.66;100.00;102302.59;5189427;28;20026;-76
2023/01/31 04:29:38;;;;;;;32.80;11.57;;;;;;;2.70;100.00;102302.59;5189892;28;20408;-75
2023/01/31 04:32:09;;;;;;;29.97;12.70;;;;;;;2.68;100.00;102296.53;5188083;28;20034;-76
2023/01/31 04:34:41;;;;;;;33.23;13.10;;;;;;;2.63;100.00;102287.09;5188389;28;20406;-76
2023/01/31 04:37:12;;;;;;;29.33;12.10;;;;;;;2.67;100.00;102287.94;5187493;28;20030;-72
2023/01/31 04:39:43;;;;;;;29.00;12.43;;;;;;;2.69;100.00;102296.53;5188536;28;20026;-77
2023/01/31 04:42:14;;;;;;;30.80;11.83;;;;;;;2.65;100.00;102295.69;5189335;28;20030;-73
2023/01/31 04:44:46;;;;;;;27.80;12.47;;;;;;;2.62;100.00;102284.47;5188798;28;20038;-74
2023/01/31 04:47:17;;;;;;;37.47;13.23;;;;;;;2.67;100.00;102300.88;5190710;28;20030;-76
2023/01/31 04:49:48;;;;;;;36.43;12.33;;;;;;;2.63;100.00;102294.84;5237491;28;20045;-75
2023/01/31 04:52:20;;;;;;;31.37;12.07;;;;;;;2.63;100.00;102297.44;5188869;28;20099;-76
2023/01/31 04:54:51;;;;;;;44.77;15.30;;;;;;;2.61;100.00;102296.56;5245522;28;20047;-73
2023/01/31 04:57:23;;;;;;;24.47;11.27;;;;;;;2.59;100.00;102290.53;5176130;28;20040;-76
2023/01/31 04:59:54;;;;;;;40.20;13.23;;;;;;;2.57;100.00;102286.22;5188879;28;20121;-77
2023/01/31 05:02:25;;;;;;;34.33;11.97;;;;;;;2.54;100.00;102266.41;5179603;28;20070;-77
2023/01/31 05:04:56;;;;;;;33.30;12.43;;;;;;;2.53;100.00;102264.72;5192847;28;20120;-73
2023/01/31 05:07:28;;;;;;;32.27;12.63;;;;;;;2.44;100.00;102263.00;5210075;28;20139;-76
2023/01/31 05:09:59;;;;;;;32.97;12.83;;;;;;;2.53;100.00;102259.53;5212525;28;20107;-77
2023/01/31 05:12:30;;;;;;;41.43;12.60;;;;;;;2.53;100.00;102260.38;5189706;28;20121;-77
2023/01/31 05:15:03;;;;;;;27.20;12.23;;;;;;;2.53;100.00;102256.94;5189640;28;20031;-76
2023/01/31 05:17:35;;;;;;;32.27;12.37;;;;;;;2.57;100.00;102268.97;5188786;28;21899;-77
2023/01/31 05:20:07;;;;;;;33.10;13.50;;;;;;;2.56;100.00;102259.53;5190591;28;20026;-73
2023/01/31 05:22:38;;;;;;;35.20;13.90;;;;;;;2.55;100.00;102257.78;5188766;28;20511;-77
2023/01/31 05:25:09;;;;;;;25.30;11.43;;;;;;;2.57;100.00;102256.06;5190110;28;20023;-76
2023/01/31 05:27:43;;;;;;;34.73;12.60;;;;;;;2.59;100.00;102254.31;5190000;28;20034;-75
2023/01/31 05:30:14;;;;;;;29.87;12.70;;;;;;;2.54;100.00;102238.84;5186953;28;20560;-76
2023/01/31 05:32:48;;;;;;;29.60;11.77;;;;;;;2.60;100.00;102250.88;5188847;28;20058;-75
2023/01/31 05:35:19;;;;;;;41.50;13.10;;;;;;;2.58;100.00;102247.44;5187609;28;20030;-73
2023/01/31 05:37:55;;;;;;;29.77;12.77;;;;;;;2.61;100.00;102247.44;5187487;28;20087;-77
2023/01/31 05:40:26;;;;;;;38.97;12.73;;;;;;;2.64;100.00;102247.41;5175730;28;20431;-73
2023/01/31 05:43:01;;;;;;;27.77;13.77;;;;;;;2.59;100.00;102233.63;5188618;28;20030;-76
2023/01/31 05:45:32;;;;;;;31.53;10.60;;;;;;;2.61;100.00;102218.97;5176067;28;20034;-76
2023/01/31 05:48:04;;;;;;;35.90;10.77;;;;;;;2.63;100.00;102229.31;5187567;28;20084;-77
2023/01/31 05:50:35;;;;;;;35.53;13.47;;;;;;;2.56;100.00;102218.13;5188311;28;20113;-77
2023/01/31 05:53:08;;;;;;;38.07;12.63;;;;;;;2.59;100.00;102228.47;5184584;28;20042;-73
2023/01/31 05:55:39;;;;;;;30.73;12.13;;;;;;;2.64;100.00;102237.06;5187061;28;20026;-73
2023/01/31 05:58:10;;;;;;;35.50;12.77;;;;;;;2.63;100.00;102214.66;5188478;28;20038;-76
2023/01/31 06:00:41;;;;;;;27.50;11.70;;;;;;;2.62;100.00;102215.50;5185568;28;20088;-72
2023/01/31 06:03:13;;;;;;;27.03;11.57;;;;;;;2.64;100.00;102216.38;5187678;28;20050;-76
2023/01/31 06:05:44;;;;;;;30.03;12.20;;;;;;;2.69;100.00;102229.28;5188153;28;20083;-75
2023/01/31 06:08:16;;;;;;;28.03;11.37;;;;;;;2.62;100.00;102233.63;5186080;28;20042;-75
2023/01/31 06:10:47;;;;;;;34.83;11.13;;;;;;;2.72;100.00;102233.59;5189062;28;20718;-76
2023/01/31 06:13:19;;;;;;;30.50;9.90;;;;;;;2.70;100.00;102240.50;5188312;28;20034;-75
2023/01/31 06:15:50;;;;;;;29.10;11.03;;;;;;;2.72;100.00;102228.41;5186958;28;20046;-73
2023/01/31 06:18:22;;;;;;;31.40;10.83;;;;;;;2.76;100.00;102235.28;5188438;28;20134;-75
2023/01/31 06:20:54;;;;;;;27.47;9.10;;;;;;;2.72;100.00;102228.41;5188825;28;20062;-76
2023/01/31 06:23:25;;;;;;;30.47;11.23;;;;;;;2.73;100.00;102222.38;5187788;28;20562;-72
2023/01/31 06:25:56;;;;;;;31.83;10.80;;;;;;;2.77;100.00;102224.09;5187967;28;20033;-75
2023/01/31 06:28:27;;;;;;;25.20;10.73;;;;;;;2.76;100.00;102233.56;5187830;28;20026;-77
2023/01/31 06:31:05;;;;;;;27.57;10.77;;;;;;;2.84;100.00;102243.03;5182357;28;20026;-72
2023/01/31 06:33:36;;;;;;;26.10;9.47;;;;;;;2.78;100.00;102228.38;5211351;28;20491;-76
2023/01/31 06:36:08;;;;;;;25.20;10.27;;;;;;;2.84;100.00;102237.84;5194881;28;20066;-74
2023/01/31 06:38:39;;;;;;;31.00;10.93;;;;;;;2.85;100.00;102234.38;5186536;28;20035;-76
2023/01/31 06:41:11;;;;;;;26.47;10.30;;;;;;;2.85;100.00;102219.72;5187398;28;20034;-75
2023/01/31 06:43:43;;;;;;;26.50;9.77;;;;;;;2.85;100.00;102224.03;5187879;28;20075;-72
2023/01/31 06:46:14;;;;;;;30.60;8.63;;;;;;;2.87;100.00;102227.47;5187092;28;20485;-74
2023/01/31 06:48:47;;;;;;;29.33;9.27;;;;;;;2.87;100.00;102223.16;5186697;28;20044;-72
2023/01/31 06:51:18;;;;;;;36.63;9.80;;;;;;;2.79;100.00;102199.06;5196390;28;20058;-72
2023/01/31 06:53:51;;;;;;;33.03;10.30;;;;;;;2.87;100.00;102207.63;5186921;28;20122;-76
2023/01/31 06:56:23;;;;;;;30.27;10.80;;;;;;;2.89;100.00;102208.50;5188078;28;20317;-72
2023/01/31 06:58:54;;;;;;;37.70;10.33;;;;;;;2.91;100.00;102211.06;5186258;28;20056;-75
2023/01/31 07:01:25;;;;;;;25.33;8.00;;;;;;;2.87;100.00;102207.63;5186677;28;20057;-77
2023/01/31 07:03:56;;;;;;;29.90;9.07;;;;;;;2.91;100.00;102208.50;5184942;28;20504;-77
2023/01/31 07:06:28;;;;;;;28.17;9.57;;;;;;;2.98;100.00;102214.47;5186305;28;20048;-76
2023/01/31 07:08:59;;;;;;;22.93;8.37;;;;;;;2.96;100.00;102205.88;5170084;28;20030;-75
2023/01/31 07:11:30;;;;;;;28.83;9.07;;;;;;;2.96;100.00;102209.31;5186684;28;20298;-78
2023/01/31 07:14:02;;;;;;;29.00;10.27;;;;;;;2.99;100.00;102201.53;5185776;28;20061;-78
2023/01/31 07:16:33;;;;;;;20.53;7.73;;;;;;;2.97;100.00;102192.91;5187633;28;20065;-76
2023/01/31 07:19:04;;;;;;;28.17;8.43;;;;;;;3.02;100.00;102200.63;5189722;28;20034;-72
2023/01/31 07:21:36;;;;;;;24.93;9.07;;;;;;;3.01;100.00;102196.34;5191684;28;20026;-74
2023/01/31 07:24:08;;;;;;;25.50;9.60;;;;;;;3.06;100.00;102194.59;5189619;28;20077;-77
2023/01/31 07:26:39;;;;;;;24.50;9.33;;;;;;;3.12;100.00;102193.69;5190455;28;20034;-73
2023/01/31 07:29:11;;;;;;;31.60;9.47;;;;;;;3.12;100.00;102193.69;5190945;28;20058;-74
2023/01/31 07:31:42;;;;;;;27.67;8.57;;;;;;;3.07;100.00;102177.34;5190672;28;20027;-76
2023/01/31 07:34:13;;;;;;;26.07;8.90;;;;;;;3.13;100.00;102192.81;5187547;28;20038;-78
2023/01/31 07:36:44;;;;;;;28.77;8.70;;;;;;;3.21;100.00;102192.78;5189789;28;20046;-74
2023/01/31 07:39:16;;;;;;;18.83;7.67;;;;;;;3.20;100.00;102189.31;5190950;28;20049;-76
2023/01/31 07:41:47;;;;;;;23.73;8.20;;;;;;;3.24;100.00;102195.34;5188847;28;20026;-74
2023/01/31 07:44:18;;;;;;;29.60;9.23;;;;;;;3.23;100.00;102178.09;5188915;28;20049;-77
2023/01/31 07:46:53;;;;;;;23.87;8.87;;;;;;;3.26;100.00;102189.25;5186750;28;20117;-76
2023/01/31 07:49:24;;;;;;;27.42;9.23;;;;;;;3.29;100.00;102177.16;5188471;28;20042;-77
2023/01/31 07:51:55;;;;;;;28.70;7.27;;;;;;;3.34;100.00;102178.88;5189445;28;20045;-80
2023/01/31 07:54:27;;;;;;;21.10;8.43;;;;;;;3.35;100.00;102177.97;5186829;28;20534;-78
2023/01/31 07:56:58;;;;;;;23.13;8.10;;;;;;;3.35;100.00;102174.53;5188503;28;20026;-74
2023/01/31 07:59:29;;;;;;;22.33;7.83;;;;;;;3.36;100.00;102164.19;5187015;28;20038;-79
2023/01/31 08:04:50;;;;;;;27.60;8.33;;;;;;;3.34;100.00;102160.72;5188282;28;20039;-77
2023/01/31 08:07:22;;;;;;;23.90;7.80;;;;;;;3.42;100.00;102152.88;5186135;28;20489;-75
2023/01/31 08:09:53;;;;;;;24.47;8.23;;;;;;;3.42;100.00;102154.63;5189853;28;20030;-72
2023/01/31 08:12:25;;;;;;;24.37;8.20;;;;;;;3.45;100.00;102157.19;5188378;28;20027;-73
2023/01/31 08:14:56;;;;;;;29.70;8.80;;;;;;;3.45;100.00;102152.88;5187808;28;20499;-77
2023/01/31 08:17:27;;;;;;;20.10;7.27;;;;;;;3.45;100.00;102145.09;5185380;28;20389;-77
2023/01/31 08:19:59;;;;;;;34.53;10.20;;;;;;;3.47;100.00;102151.09;5189201;28;20045;-74
2023/01/31 08:22:30;;;;;;;18.90;8.30;;;;;;;3.50;100.00;102155.41;5187888;28;20032;-78
2023/01/31 08:25:01;;;;;;;26.90;7.17;;;;;;;3.42;100.00;102136.50;5188247;28;20042;-73
2023/01/31 08:27:32;;;;;;;15.73;7.20;;;;;;;3.54;100.00;102151.06;5191023;28;20504;-79
2023/01/31 08:30:04;;;;;;;22.73;7.70;;;;;;;3.58;100.00;102153.63;5187951;28;20033;-78
2023/01/31 08:32:36;;;;;;;18.53;8.20;;;;;;;3.58;100.00;102135.47;5189560;28;20038;-76
2023/01/31 08:35:07;;;;;;;28.27;9.80;;;;;;;3.62;100.00;102146.69;5189429;28;20026;-79
2023/01/31 08:37:38;;;;;;;21.47;7.07;;;;;;;3.63;100.00;102125.09;5188374;28;20031;-74
2023/01/31 08:40:10;;;;;;;21.13;7.13;;;;;;;3.66;100.00;102129.38;5189188;28;20034;-79
2023/01/31 08:42:42;;;;;;;24.83;7.63;;;;;;;3.69;100.00;102130.19;5188838;28;20041;-77
2023/01/31 08:45:13;;;;;;;20.67;7.37;;;;;;;3.73;100.00;102126.72;5188275;28;20026;-74
2023/01/31 08:47:44;;;;;;;25.23;7.73;;;;;;;3.81;100.00;102123.16;5189579;28;20027;-77
2023/01/31 08:50:16;;;;;;;27.17;7.70;;;;;;;3.78;100.00;102125.78;5185844;28;20046;-78
2023/01/31 08:52:55;;;;;;;28.27;7.90;;;;;;;3.82;100.00;102130.09;5188373;28;20029;-76
2023/01/31 08:55:28;;;;;;;26.23;7.30;;;;;;;3.82;100.00;102130.91;5186708;28;20541;-75
2023/01/31 08:58:00;;;;;;;22.90;6.80;;;;;;;3.84;100.00;102117.97;5189946;28;20465;-77
2023/01/31 09:00:32;;;;;;;25.67;6.70;;;;;;;3.84;100.00;102105.84;5189426;28;20527;-79
2023/01/31 09:03:03;;;;;;;25.23;7.20;;;;;;;3.90;100.00;102111.84;5189856;28;20091;-76
2023/01/31 09:05:34;;;;;;;25.17;7.10;;;;;;;3.93;100.00;102101.44;5189636;28;20034;-78
2023/01/31 09:08:06;;;;;;;21.60;7.37;;;;;;;4.03;100.00;102102.19;5188543;28;20070;-75
2023/01/31 09:10:37;;;;;;;29.70;7.97;;;;;;;4.04;100.00;102094.41;5187983;28;20068;-74
2023/01/31 09:13:08;;;;;;;25.17;8.37;;;;;;;4.07;100.00;102102.13;5196901;28;20018;-79
2023/01/31 09:15:39;;;;;;;20.90;7.63;;;;;;;4.11;100.00;102101.22;5188452;28;20497;-77
2023/01/31 09:18:11;;;;;;;27.73;6.13;;;;;;;4.16;100.00;102102.88;5189457;28;20466;-76
2023/01/31 09:20:42;;;;;;;15.70;6.20;;;;;;;4.09;100.00;102096.94;5189887;28;20906;-79
2023/01/31 09:23:13;;;;;;;21.30;5.77;;;;;;;4.19;100.00;102100.28;5187590;28;20192;-76
2023/01/31 09:25:54;;;;;;;29.67;7.47;;;;;;;4.22;100.00;102095.06;5189967;28;20022;-78
2023/01/31 09:28:26;;;;;;;20.93;7.10;;;;;;;4.28;100.00;102091.50;5175753;28;20469;-76
2023/01/31 09:31:08;;;;;;;20.43;5.93;;;;;;;4.35;100.00;102078.44;5189640;28;20035;-79
2023/01/31 09:33:39;;;;;;;28.27;6.40;;;;;;;4.42;100.00;102075.75;5176941;28;20038;-78
2023/01/31 09:36:16;;;;;;;23.60;6.80;;;;;;;4.51;100.00;102067.84;5189297;28;20107;-70
2023/01/31 09:38:54;;;;;;;19.43;6.87;;;;;;;4.60;100.00;102078.09;5189148;28;20026;-78
2023/01/31 09:41:43;;;;;;;16.87;6.37;;;;;;;4.72;100.00;102076.19;5188339;28;20049;-77
2023/01/31 09:44:25;;;;;;;22.17;6.83;;;;;;;4.76;100.00;102074.41;5189374;28;20032;-77
2023/01/31 09:47:27;;;;;;;25.97;9.03;;;;;;;4.87;100.00;102084.63;5188999;28;20018;-77
2023/01/31 09:50:04;;;;;;;42.27;8.07;;;;;;;4.88;100.00;102082.00;5189028;28;20034;-77
2023/01/31 09:52:37;;;;;;;18.80;6.10;;;;;;;5.11;100.00;102077.31;5187392;28;20030;-78
2023/01/31 09:55:29;;;;;;;25.87;6.63;;;;;;;5.16;100.00;102070.31;5187652;28;20018;-74
2023/01/31 09:58:34;;;;;;;17.03;6.57;;;;;;;5.25;100.00;102077.09;5189219;28;20023;-79
2023/01/31 10:01:17;;;;;;;20.37;6.63;;;;;;;5.45;100.00;102075.00;5185640;28;20015;-77
2023/01/31 10:03:55;;;;;;;18.90;6.23;;;;;;;5.46;100.00;102083.66;5188692;28;20443;-75
2023/01/31 10:06:52;;;;;;;23.13;7.23;;;;;;;5.42;100.00;102076.78;5187728;28;20538;-76
2023/01/31 10:09:47;;;;;;;25.13;8.60;;;;;;;5.39;100.00;102092.44;5188934;28;20053;-78
2023/01/31 10:12:31;;;;;;;23.63;7.43;;;;;;;5.29;100.00;102073.53;5188758;28;20388;-75
2023/01/31 10:15:12;;;;;;;15.40;6.27;;;;;;;5.20;100.00;102077.19;5188382;28;20018;-74
2023/01/31 10:17:52;;;;;;;18.73;6.73;;;;;;;5.25;100.00;102075.38;5187477;28;20121;-70
2023/01/31 10:20:47;;;;;;;18.70;6.80;;;;;;;5.32;100.00;102076.94;5186785;28;20544;-78
2023/01/31 10:23:30;;;;;;;22.23;7.78;;;;;;;5.29;100.00;102053.63;5187147;28;20023;-80
2023/01/31 10:26:25;;;;;;;24.07;9.20;;;;;;;5.32;100.00;102050.13;5188602;28;20034;-77
2023/01/31 10:29:05;;;;;;;24.10;8.63;;;;;;;5.29;100.00;102055.34;5187728;28;20123;-79
2023/01/31 10:31:57;;;;;;;19.10;9.27;;;;;;;5.29;100.00;102053.63;5187080;28;20426;-78
2023/01/31 10:34:39;;;;;;;23.47;8.90;;;;;;;5.30;100.00;102060.56;5188819;28;20041;-78
2023/01/31 10:37:24;;;;;;;29.17;9.97;;;;;;;5.29;100.00;102082.19;5187841;28;20038;-78
2023/01/31 10:40:11;;;;;;;21.80;9.43;;;;;;;5.31;100.00;102088.22;5186652;28;20091;-79
2023/01/31 10:42:51;;;;;;;21.63;10.20;;;;;;;5.32;100.00;102076.09;5188749;28;20033;-77
2023/01/31 10:45:29;;;;;;;26.50;11.93;;;;;;;5.32;100.00;102071.75;5188141;28;20022;-80
2023/01/31 10:48:24;;;;;;;27.60;10.87;;;;;;;5.41;100.00;102059.50;5188005;28;20030;-79
2023/01/31 10:50:58;;;;;;;28.35;11.98;;;;;;;5.45;100.00;102071.53;5188667;28;20377;-75
2023/01/31 10:54:05;;;;;;;27.40;12.68;;;;;;;5.52;100.00;102056.69;5186668;28;20034;-78
2023/01/31 10:56:41;;;;;;;25.20;12.63;;;;;;;5.52;100.00;102044.53;5186480;28;20530;-75
2023/01/31 10:59:23;;;;;;;24.23;12.20;;;;;;;5.54;100.00;102036.72;5187751;28;20026;-75
2023/01/31 11:01:55;;;;;;;25.07;13.20;;;;;;;5.38;100.00;102025.75;5187798;28;20027;-78
2023/01/31 11:04:40;;;;;;;32.03;13.90;;;;;;;5.54;100.00;102045.38;5188160;28;20130;-75
2023/01/31 11:07:11;;;;;;;30.83;12.43;;;;;;;5.54;100.00;102032.38;5186622;28;20461;-78
2023/01/31 11:09:47;;;;;;;31.13;14.20;;;;;;;5.60;100.00;102044.41;5188037;28;20061;-73
2023/01/31 11:12:20;;;;;;;29.67;13.30;;;;;;;5.65;100.00;102046.91;5187046;28;20034;-79
2023/01/31 11:15:13;;;;;;;24.40;12.43;;;;;;;5.70;100.00;102032.09;5187542;28;20062;-74
2023/01/31 11:17:46;;;;;;;25.30;12.20;;;;;;;5.68;100.00;102011.31;5190877;28;20026;-72
2023/01/31 11:20:24;;;;;;;28.13;11.50;;;;;;;5.85;100.00;102023.09;5185906;28;20018;-72
2023/01/31 11:22:57;;;;;;;28.37;12.13;;;;;;;5.84;100.00;102023.13;5182744;28;20027;-81
2023/01/31 11:25:31;;;;;;;26.20;11.90;;;;;;;5.84;100.00;102030.94;5229382;28;20036;-74
2023/01/31 11:28:15;;;;;;;25.73;12.43;;;;;;;5.89;100.00;101997.91;5187866;28;20050;-73
2023/01/31 11:30:49;;;;;;;22.08;11.43;;;;;;;5.92;100.00;101995.22;5187142;28;20034;-78
2023/01/31 11:33:36;;;;;;;21.48;10.63;;;;;;;6.01;100.00;101999.38;5183688;28;20460;-76
2023/01/31 11:36:13;;;;;;;24.83;10.40;;;;;;;6.02;100.00;101999.34;5184529;28;20756;-74
2023/01/31 11:38:44;;;;;;;25.20;11.77;;;;;;;5.99;100.00;101999.41;5185951;28;20019;-73
2023/01/31 11:41:36;;;;;;;26.60;11.07;;;;;;;6.05;100.00;102014.94;5187325;28;20046;-76
2023/01/31 11:44:16;;;;;;;32.50;11.23;;;;;;;5.99;100.00;102004.59;5186467;28;20129;-76
2023/01/31 11:46:54;;;;;;;22.07;10.20;;;;;;;6.01;100.00;102002.84;5186233;28;20053;-72
2023/01/31 11:49:31;;;;;;;20.97;8.93;;;;;;;6.11;100.00;101997.47;5182050;28;20741;-78
2023/01/31 11:52:21;;;;;;;23.47;9.60;;;;;;;6.10;100.00;101996.63;5184796;28;20419;-74
2023/01/31 11:55:00;;;;;;;23.63;9.23;;;;;;;6.08;100.00;101997.53;5187653;28;20041;-72
2023/01/31 11:57:35;;;;;;;16.50;8.63;;;;;;;6.07;100.00;101991.47;5187479;28;20037;-73
2023/01/31 12:00:29;;;;;;;18.70;9.40;;;;;;;6.13;100.00;101988.72;5186840;28;20034;-74